Time,TemperatureF,DewpointF,PressureIn,WindDirection,WindDirectionDegrees,WindSpeedMPH,WindSpeedGustMPH,Humidity,HourlyPrecipIn,Conditions,Clouds,dailyrainin,SoftwareType,DateUTC
2013-11-04 00:02:00,66.7,57.8,30.01,ESE,115,0.0,0.0,73,0.00,CLR,,0.00,WeatherDisplay:10.37,2013-11-04 06:02:00,
2013-11-04 00:07:00,66.5,57.6,30.01,ESE,115,0.0,0.0,73,0.00,CLR,,0.00,WeatherDisplay:10.37,2013-11-04 06:07:00,
2013-11-04 00:12:00,66.2,57.7,30.01,ESE,115,0.0,0.0,74,0.00,CLR,,0.00,WeatherDisplay:10.37,2013-11-04 06:12:00,
2013-11-04 00:17:00,65.9,57.7,30.01,ESE,115,0.0,0.0,75,0.00,CLR,,0.00,WeatherDisplay:10.37,2013-11-04 06:17:00,
2013-11-04 00:22:00,65.6,57.8,30.01,ESE,115,1.1,0.0,76,0.00,CLR,,0.00,WeatherDisplay:10.37,2013-11-04 06:22:00,
2013-11-04 00:27:00,65.4,57.6,30.00,ESE,115,1.1,1.1,76,0.00,CLR,,0.00,WeatherDisplay:10.37,2013-11-04 06:27:00,
2013-11-04 00:32:00,65.3,57.9,30.00,ESE,115,0.0,0.1,77,0.00,CLR,,0.00,WeatherDisplay:10.37,2013-11-04 06:32:00,
2013-11-04 00:37:00,65.2,58.2,30.00,ESE,116,1.1,0.0,78,0.00,CLR,,0.00,WeatherDisplay:10.37,2013-11-04 06:37:00,
2013-11-04 00:42:00,65.2,58.2,30.00,ESE,117,1.1,0.0,78,0.00,CLR,,0.00,WeatherDisplay:10.37,2013-11-04 06:42:00,
2013-11-04 00:47:00,65.1,58.1,30.00,ESE,117,0.0,0.0,78,0.00,CLR,,0.00,WeatherDisplay:10.37,2013-11-04 06:47:00,
2013-11-04 00:52:00,65.0,58.0,30.00,ESE,117,0.0,0.0,78,0.00,CLR,,0.00,WeatherDisplay:10.37,2013-11-04 06:52:00,
2013-11-04 00:57:00,64.8,57.8,30.00,ESE,117,0.0,0.0,78,0.00,CLR,,0.00,WeatherDisplay:10.37,2013-11-04 06:57:00,
2013-11-04 01:02:00,64.5,57.8,30.00,ESE,117,0.0,0.0,79,0.00,CLR,,0.00,WeatherDisplay:10.37,2013-11-04 07:02:00,
2013-11-04 01:07:00,64.2,57.5,30.00,ESE,117,0.0,0.0,79,0.00,CLR,,0.00,WeatherDisplay:10.37,2013-11-04 07:07:00,
2013-11-04 01:12:00,63.9,57.3,30.00,ESE,117,0.0,0.0,79,0.00,CLR,,0.00,WeatherDisplay:10.37,2013-11-04 07:12:00,
2013-11-04 01:17:00,63.6,57.3,30.00,ESE,117,0.0,0.0,80,0.00,CLR,,0.00,WeatherDisplay:10.37,2013-11-04 07:17:00,
2013-11-04 01:22:00,63.1,57.2,30.00,ESE,117,0.0,0.0,81,0.00,CLR,,0.00,WeatherDisplay:10.37,2013-11-04 07:22:00,
2013-11-04 01:27:00,62.7,56.8,30.00,ESE,117,0.0,0.0,81,0.00,CLR,,0.00,WeatherDisplay:10.37,2013-11-04 07:27:00,
2013-11-04 01:32:00,62.4,56.8,30.00,ESE,117,0.0,0.0,82,0.00,CLR,,0.00,WeatherDisplay:10.37,2013-11-04 07:32:00,
2013-11-04 01:37:00,62.0,56.8,29.99,ESE,117,0.0,0.0,83,0.00,CLR,,0.00,WeatherDisplay:10.37,2013-11-04 07:37:00,
2013-11-04 01:42:00,61.7,56.5,29.99,ESE,117,0.0,0.0,83,0.00,CLR,,0.00,WeatherDisplay:10.37,2013-11-04 07:42:00,
2013-11-04 01:47:00,61.6,56.7,30.00,ESE,117,0.0,0.0,84,0.00,CLR,,0.00,WeatherDisplay:10.37,2013-11-04 07:47:00,
2013-11-04 01:52:00,61.5,57.3,30.00,ESE,117,0.0,0.0,86,0.00,CLR,,0.00,WeatherDisplay:10.37,2013-11-04 07:52:00,
2013-11-04 01:57:00,61.3,57.1,29.99,ESE,117,0.0,0.0,86,0.00,CLR,,0.00,WeatherDisplay:10.37,2013-11-04 07:57:00,
2013-11-04 02:02:00,61.1,56.9,29.99,ESE,117,0.0,0.0,86,0.00,CLR,,0.00,WeatherDisplay:10.37,2013-11-04 08:02:00,
2013-11-04 02:07:00,60.9,57.0,29.99,ESE,117,0.0,0.0,87,0.00,CLR,,0.00,WeatherDisplay:10.37,2013-11-04 08:07:00,
2013-11-04 02:12:00,60.6,56.7,29.99,ESE,117,0.0,0.0,87,0.00,CLR,,0.00,WeatherDisplay:10.37,2013-11-04 08:12:00,
2013-11-04 02:17:00,60.4,56.5,29.98,ESE,117,0.0,0.0,87,0.00,CLR,,0.00,WeatherDisplay:10.37,2013-11-04 08:17:00,
2013-11-04 02:22:00,60.2,56.6,29.98,ESE,117,0.0,0.0,88,0.00,CLR,,0.00,WeatherDisplay:10.37,2013-11-04 08:22:00,
2013-11-04 02:27:00,60.0,56.4,29.99,ESE,117,0.0,0.0,88,0.00,CLR,,0.00,WeatherDisplay:10.37,2013-11-04 08:27:00,
2013-11-04 02:32:00,59.8,56.6,29.99,ESE,117,0.0,0.0,89,0.00,CLR,,0.00,WeatherDisplay:10.37,2013-11-04 08:32:00,
2013-11-04 02:37:00,59.6,56.4,29.99,ESE,117,0.0,0.0,89,0.00,CLR,,0.00,WeatherDisplay:10.37,2013-11-04 08:37:00,
2013-11-04 02:42:00,59.5,56.3,29.98,ESE,117,0.0,0.0,89,0.00,CLR,,0.00,WeatherDisplay:10.37,2013-11-04 08:42:00,
2013-11-04 02:47:00,59.4,56.2,29.98,ESE,117,0.0,0.0,89,0.00,CLR,,0.00,WeatherDisplay:10.37,2013-11-04 08:47:00,
2013-11-04 02:52:00,59.4,56.5,29.98,ESE,117,0.0,0.0,90,0.00,CLR,,0.00,WeatherDisplay:10.37,2013-11-04 08:52:00,
2013-11-04 02:57:00,59.4,56.5,29.97,ESE,117,0.0,0.0,90,0.00,CLR,,0.00,WeatherDisplay:10.37,2013-11-04 08:57:00,
2013-11-04 03:02:00,59.3,56.4,29.97,ESE,117,0.0,0.0,90,0.00,CLR,,0.00,WeatherDisplay:10.37,2013-11-04 09:02:00,
2013-11-04 03:07:00,59.2,56.3,29.97,ESE,117,0.0,0.1,90,0.00,CLR,,0.00,WeatherDisplay:10.37,2013-11-04 09:07:00,
2013-11-04 03:12:00,59.0,56.1,29.96,ESE,117,1.1,1.1,90,0.00,CLR,,0.00,WeatherDisplay:10.37,2013-11-04 09:12:00,
2013-11-04 03:17:00,58.9,56.0,29.96,ESE,117,0.0,0.0,90,0.00,CLR,,0.00,WeatherDisplay:10.37,2013-11-04 09:17:00,
2013-11-04 03:22:00,58.8,55.9,29.96,ESE,117,0.0,0.0,90,0.00,CLR,,0.00,WeatherDisplay:10.37,2013-11-04 09:22:00,
2013-11-04 03:27:00,58.7,55.8,29.96,ESE,117,0.0,0.0,90,0.00,CLR,,0.00,WeatherDisplay:10.37,2013-11-04 09:27:00,
2013-11-04 03:32:00,58.9,56.3,29.96,ESE,117,0.0,0.0,91,0.00,CLR,,0.00,WeatherDisplay:10.37,2013-11-04 09:32:00,
2013-11-04 03:37:00,59.2,56.6,29.96,ESE,117,0.0,0.0,91,0.00,CLR,,0.00,WeatherDisplay:10.37,2013-11-04 09:37:00,
2013-11-04 03:42:00,59.2,56.6,29.96,ESE,117,0.0,0.0,91,0.00,CLR,,0.00,WeatherDisplay:10.37,2013-11-04 09:42:00,
2013-11-04 03:47:00,59.2,56.6,29.95,ESE,117,0.0,0.0,91,0.00,CLR,,0.00,WeatherDisplay:10.37,2013-11-04 09:47:00,
2013-11-04 03:52:00,59.0,56.4,29.96,ESE,117,0.0,0.0,91,0.00,CLR,,0.00,WeatherDisplay:10.37,2013-11-04 09:52:00,
2013-11-04 03:57:00,58.9,56.3,29.95,ESE,117,0.0,0.0,91,0.00,CLR,,0.00,WeatherDisplay:10.37,2013-11-04 09:57:00,
2013-11-04 04:02:00,58.8,56.2,29.95,ESE,117,0.0,0.0,91,0.00,CLR,,0.00,WeatherDisplay:10.37,2013-11-04 10:02:00,
2013-11-04 04:07:00,58.7,56.1,29.95,ESE,117,0.0,0.0,91,0.00,CLR,,0.00,WeatherDisplay:10.37,2013-11-04 10:07:00,
2013-11-04 04:12:00,58.6,56.3,29.96,ESE,117,0.0,0.0,92,0.00,CLR,,0.00,WeatherDisplay:10.37,2013-11-04 10:12:00,
2013-11-04 04:17:00,58.5,56.2,29.95,ESE,117,1.1,0.0,92,0.00,CLR,,0.00,WeatherDisplay:10.37,2013-11-04 10:17:00,
2013-11-04 04:22:00,58.4,56.1,29.96,ESE,117,0.0,0.0,92,0.00,CLR,,0.00,WeatherDisplay:10.37,2013-11-04 10:22:00,
2013-11-04 04:27:00,58.3,56.0,29.96,ESE,117,0.0,0.0,92,0.00,CLR,,0.00,WeatherDisplay:10.37,2013-11-04 10:27:00,
2013-11-04 04:32:00,58.4,56.1,29.96,ESE,117,1.1,1.1,92,0.00,CLR,,0.00,WeatherDisplay:10.37,2013-11-04 10:32:00,
2013-11-04 04:37:00,58.8,56.8,29.96,ENE,71,2.3,2.3,93,0.00,CLR,,0.00,WeatherDisplay:10.37,2013-11-04 10:37:00,
2013-11-04 04:42:00,59.0,57.0,29.96,ENE,71,2.3,2.3,93,0.00,CLR,,0.00,WeatherDisplay:10.37,2013-11-04 10:42:00,
2013-11-04 04:47:00,59.2,57.2,29.96,ENE,71,0.0,0.0,93,0.00,CLR,,0.00,WeatherDisplay:10.37,2013-11-04 10:47:00,
2013-11-04 04:52:00,59.2,57.2,29.96,ENE,71,0.0,0.0,93,0.00,CLR,,0.00,WeatherDisplay:10.37,2013-11-04 10:52:00,
2013-11-04 04:57:00,59.2,57.2,29.96,ENE,71,0.0,0.0,93,0.00,CLR,,0.00,WeatherDisplay:10.37,2013-11-04 10:57:00,
2013-11-04 05:02:00,59.2,57.2,29.95,ENE,71,1.1,0.0,93,0.00,CLR,,0.00,WeatherDisplay:10.37,2013-11-04 11:02:00,
2013-11-04 05:07:00,59.3,57.3,29.95,ENE,71,1.1,1.1,93,0.00,CLR,,0.00,WeatherDisplay:10.37,2013-11-04 11:07:00,
2013-11-04 05:12:00,59.2,57.2,29.95,ENE,71,0.0,0.2,93,0.00,CLR,,0.00,WeatherDisplay:10.37,2013-11-04 11:12:00,
2013-11-04 05:14:00,59.2,57.2,29.95,ENE,71,1.1,1.1,93,0.00,CLR,,0.00,WeatherDisplay:10.37,2013-11-04 11:14:00,
2013-11-04 05:19:00,59.3,57.3,29.95,ENE,71,1.1,1.1,93,0.00,CLR,,0.00,WeatherDisplay:10.37,2013-11-04 11:19:00,
2013-11-04 05:22:00,59.4,57.4,29.95,ENE,71,1.1,1.1,93,0.00,CLR,,0.00,WeatherDisplay:10.37,2013-11-04 11:22:00,
2013-11-04 05:27:00,59.6,57.6,29.95,ENE,71,1.1,0.0,93,0.00,CLR,,0.00,WeatherDisplay:10.37,2013-11-04 11:27:00,
2013-11-04 05:32:00,59.8,57.8,29.96,ENE,71,0.0,0.0,93,0.00,CLR,,0.00,WeatherDisplay:10.37,2013-11-04 11:32:00,
2013-11-04 05:37:00,60.0,58.0,29.96,ENE,71,1.1,0.0,93,0.00,CLR,,0.00,WeatherDisplay:10.37,2013-11-04 11:37:00,
2013-11-04 05:42:00,60.0,58.0,29.96,ENE,71,0.0,0.0,93,0.00,CLR,,0.00,WeatherDisplay:10.37,2013-11-04 11:42:00,
2013-11-04 05:47:00,60.0,57.7,29.96,ENE,71,0.0,0.0,92,0.00,CLR,,0.00,WeatherDisplay:10.37,2013-11-04 11:47:00,
2013-11-04 05:52:00,60.0,57.7,29.96,ENE,71,0.0,0.0,92,0.00,CLR,,0.00,WeatherDisplay:10.37,2013-11-04 11:52:00,
2013-11-04 05:57:00,59.9,57.6,29.97,ENE,71,0.0,0.0,92,0.00,CLR,,0.00,WeatherDisplay:10.37,2013-11-04 11:57:00,
2013-11-04 06:02:00,59.8,57.5,29.97,ENE,71,0.0,0.0,92,0.00,CLR,,0.00,WeatherDisplay:10.37,2013-11-04 12:02:00,
2013-11-04 06:07:00,59.7,57.4,29.97,ENE,71,0.0,0.0,92,0.00,CLR,,0.00,WeatherDisplay:10.37,2013-11-04 12:07:00,
2013-11-04 06:12:00,59.6,57.3,29.97,ENE,71,0.0,0.0,92,0.00,CLR,,0.00,WeatherDisplay:10.37,2013-11-04 12:12:00,
2013-11-04 06:17:00,59.5,57.2,29.97,ENE,71,0.0,0.0,92,0.00,CLR,,0.00,WeatherDisplay:10.37,2013-11-04 12:17:00,
2013-11-04 06:22:00,59.4,57.4,29.97,ENE,71,0.0,0.0,93,0.00,CLR,,0.00,WeatherDisplay:10.37,2013-11-04 12:22:00,
2013-11-04 06:27:00,59.4,57.4,29.97,ENE,71,0.0,0.0,93,0.00,CLR,,0.00,WeatherDisplay:10.37,2013-11-04 12:27:00,
2013-11-04 06:32:00,59.4,57.4,29.97,ENE,71,1.1,1.1,93,0.00,CLR,,0.00,WeatherDisplay:10.37,2013-11-04 12:32:00,
2013-11-04 06:37:00,59.4,57.4,29.97,ENE,71,2.3,2.3,93,0.00,CLR,,0.00,WeatherDisplay:10.37,2013-11-04 12:37:00,
2013-11-04 06:42:00,59.5,57.5,29.98,ENE,71,1.1,1.1,93,0.00,CLR,,0.00,WeatherDisplay:10.37,2013-11-04 12:42:00,
2013-11-04 06:47:00,59.7,58.0,29.98,ENE,58,3.5,3.5,94,0.00,CLR,,0.00,WeatherDisplay:10.37,2013-11-04 12:47:00,
2013-11-04 06:52:00,59.9,58.2,29.98,ENE,58,1.1,1.1,94,0.00,CLR,,0.00,WeatherDisplay:10.37,2013-11-04 12:52:00,
2013-11-04 06:57:00,60.3,58.6,29.98,ENE,58,1.1,1.1,94,0.00,CLR,,0.00,WeatherDisplay:10.37,2013-11-04 12:57:00,
2013-11-04 07:02:00,60.6,58.9,29.97,ENE,58,1.1,1.1,94,0.00,CLR,,0.00,WeatherDisplay:10.37,2013-11-04 13:02:00,
2013-11-04 07:07:00,60.8,59.1,29.98,ENE,58,0.0,0.0,94,0.00,CLR,,0.00,WeatherDisplay:10.37,2013-11-04 13:07:00,
2013-11-04 07:12:00,61.0,59.3,29.98,ENE,58,1.1,0.0,94,0.00,CLR,,0.00,WeatherDisplay:10.37,2013-11-04 13:12:00,
2013-11-04 07:17:00,61.3,59.6,29.97,ENE,58,2.3,2.3,94,0.00,CLR,,0.00,WeatherDisplay:10.37,2013-11-04 13:17:00,
2013-11-04 07:22:00,61.6,59.9,29.98,ENE,58,2.3,2.3,94,0.00,CLR,,0.00,WeatherDisplay:10.37,2013-11-04 13:22:00,
2013-11-04 07:27:00,61.9,60.2,29.99,ENE,58,1.1,1.1,94,0.00,CLR,,0.00,WeatherDisplay:10.37,2013-11-04 13:27:00,
2013-11-04 07:32:00,62.2,60.5,29.99,ENE,58,1.1,1.1,94,0.00,CLR,,0.00,WeatherDisplay:10.37,2013-11-04 13:32:00,
2013-11-04 07:37:00,62.4,60.7,29.99,ENE,58,1.1,1.1,94,0.00,CLR,,0.00,WeatherDisplay:10.37,2013-11-04 13:37:00,
2013-11-04 07:42:00,62.6,60.8,29.98,ENE,58,0.0,0.0,94,0.00,CLR,,0.00,WeatherDisplay:10.37,2013-11-04 13:42:00,
2013-11-04 07:47:00,62.9,61.1,29.99,ENE,58,1.1,1.1,94,0.00,CLR,,0.00,WeatherDisplay:10.37,2013-11-04 13:47:00,
2013-11-04 07:52:00,63.1,61.3,29.99,ENE,58,1.1,0.0,94,0.00,CLR,,0.00,WeatherDisplay:10.37,2013-11-04 13:52:00,
2013-11-04 07:57:00,63.3,61.2,29.99,ENE,58,0.0,0.0,93,0.00,CLR,,0.00,WeatherDisplay:10.37,2013-11-04 13:57:00,
2013-11-04 08:02:00,63.5,61.4,29.99,ENE,58,0.0,0.0,93,0.00,CLR,,0.00,WeatherDisplay:10.37,2013-11-04 14:02:00,
2013-11-04 08:07:00,63.8,61.7,29.99,ENE,58,0.0,0.0,93,0.00,CLR,,0.00,WeatherDisplay:10.37,2013-11-04 14:07:00,
2013-11-04 08:12:00,64.1,62.0,30.00,ENE,58,0.0,0.0,93,0.00,CLR,,0.00,WeatherDisplay:10.37,2013-11-04 14:12:00,
2013-11-04 08:17:00,64.4,62.3,30.00,ENE,58,0.0,0.0,93,0.00,CLR,,0.00,WeatherDisplay:10.37,2013-11-04 14:17:00,
2013-11-04 08:22:00,64.6,62.5,30.00,ENE,58,0.0,0.0,93,0.00,CLR,,0.00,WeatherDisplay:10.37,2013-11-04 14:22:00,
2013-11-04 08:27:00,65.1,63.0,30.00,ENE,58,0.0,0.0,93,0.00,CLR,,0.00,WeatherDisplay:10.37,2013-11-04 14:27:00,
2013-11-04 08:32:00,65.8,63.7,30.00,ENE,58,0.0,0.0,93,0.00,CLR,,0.00,WeatherDisplay:10.37,2013-11-04 14:32:00,
2013-11-04 08:37:00,66.6,64.5,30.00,ENE,58,0.0,0.0,93,0.00,CLR,,0.00,WeatherDisplay:10.37,2013-11-04 14:37:00,
2013-11-04 08:42:00,67.3,64.9,30.00,ENE,58,0.0,0.0,92,0.00,CLR,,0.00,WeatherDisplay:10.37,2013-11-04 14:42:00,
2013-11-04 08:47:00,68.0,65.0,30.00,ENE,58,0.0,0.0,90,0.00,CLR,,0.00,WeatherDisplay:10.37,2013-11-04 14:47:00,
2013-11-04 08:52:00,68.6,65.2,30.01,ENE,58,1.1,1.1,89,0.00,CLR,,0.00,WeatherDisplay:10.37,2013-11-04 14:52:00,
2013-11-04 08:57:00,69.1,65.4,30.01,ENE,58,1.1,1.1,88,0.00,CLR,,0.00,WeatherDisplay:10.37,2013-11-04 14:57:00,
2013-11-04 09:02:00,69.5,65.5,30.02,ENE,58,0.0,0.0,87,0.00,CLR,,0.00,WeatherDisplay:10.37,2013-11-04 15:02:00,
2013-11-04 09:07:00,70.0,66.0,30.02,ENE,58,1.1,1.1,87,0.00,CLR,,0.00,WeatherDisplay:10.37,2013-11-04 15:07:00,
2013-11-04 09:12:00,70.4,66.3,30.02,ENE,58,1.1,1.1,87,0.00,CLR,,0.00,WeatherDisplay:10.37,2013-11-04 15:12:00,
2013-11-04 09:17:00,70.5,66.1,30.02,ENE,58,2.3,2.3,86,0.00,CLR,,0.00,WeatherDisplay:10.37,2013-11-04 15:17:00,
2013-11-04 09:22:00,70.5,66.1,30.02,ENE,58,1.1,0.0,86,0.00,CLR,,0.00,WeatherDisplay:10.37,2013-11-04 15:22:00,
2013-11-04 09:27:00,70.7,66.3,30.02,ENE,58,2.3,2.3,86,0.00,CLR,,0.00,WeatherDisplay:10.37,2013-11-04 15:27:00,
2013-11-04 09:32:00,70.7,66.3,30.02,ENE,58,1.1,1.1,86,0.00,CLR,,0.00,WeatherDisplay:10.37,2013-11-04 15:32:00,
2013-11-04 09:37:00,70.8,66.4,30.02,ENE,58,2.3,2.3,86,0.00,CLR,,0.00,WeatherDisplay:10.37,2013-11-04 15:37:00,
2013-11-04 09:42:00,71.1,66.7,30.02,ENE,58,2.3,2.3,86,0.00,CLR,,0.00,WeatherDisplay:10.37,2013-11-04 15:42:00,
2013-11-04 09:47:00,71.2,66.8,30.02,ENE,58,1.1,1.1,86,0.00,CLR,,0.00,WeatherDisplay:10.37,2013-11-04 15:47:00,
2013-11-04 09:52:00,71.5,66.8,30.02,ENE,59,2.3,2.3,85,0.00,CLR,,0.00,WeatherDisplay:10.37,2013-11-04 15:52:00,
2013-11-04 09:57:00,71.8,67.0,30.02,ENE,58,1.1,0.0,85,0.00,CLR,,0.00,WeatherDisplay:10.37,2013-11-04 15:57:00,
2013-11-04 10:02:00,72.2,67.4,30.01,ENE,62,2.3,2.3,85,0.00,CLR,,0.00,WeatherDisplay:10.37,2013-11-04 16:02:00,
2013-11-04 10:07:00,72.6,67.1,30.01,ENE,76,4.6,4.6,83,0.00,CLR,,0.00,WeatherDisplay:10.37,2013-11-04 16:07:00,
2013-11-04 10:12:00,73.2,67.7,30.01,East,79,4.6,4.6,83,0.00,CLR,,0.00,WeatherDisplay:10.37,2013-11-04 16:12:00,
2013-11-04 10:17:00,74.1,67.9,30.01,ENE,76,5.8,5.8,81,0.00,CLR,,0.00,WeatherDisplay:10.37,2013-11-04 16:17:00,
2013-11-04 10:22:00,74.7,67.4,30.02,ENE,76,3.5,3.5,78,0.00,CLR,,0.00,WeatherDisplay:10.37,2013-11-04 16:22:00,
2013-11-04 10:27:00,75.0,67.3,30.02,East,85,4.6,4.6,77,0.00,CLR,,0.00,WeatherDisplay:10.37,2013-11-04 16:27:00,
2013-11-04 10:32:00,75.2,67.5,30.02,ESE,121,3.5,3.5,77,0.00,CLR,,0.00,WeatherDisplay:10.37,2013-11-04 16:32:00,
2013-11-04 10:37:00,75.0,67.3,30.02,ENE,77,5.8,5.8,77,0.00,CLR,,0.00,WeatherDisplay:10.37,2013-11-04 16:37:00,
2013-11-04 10:42:00,75.2,67.9,30.01,East,79,2.3,2.3,78,0.00,CLR,,0.00,WeatherDisplay:10.37,2013-11-04 16:42:00,
2013-11-04 10:47:00,75.3,67.6,30.01,ENE,70,4.6,4.6,77,0.00,CLR,,0.00,WeatherDisplay:10.37,2013-11-04 16:47:00,
2013-11-04 10:52:00,75.5,67.8,30.01,East,84,4.6,4.6,77,0.00,CLR,,0.00,WeatherDisplay:10.37,2013-11-04 16:52:00,
2013-11-04 10:57:00,76.0,68.6,30.01,East,94,5.8,5.8,78,0.00,CLR,,0.00,WeatherDisplay:10.37,2013-11-04 16:57:00,
2013-11-04 11:02:00,75.8,68.1,30.00,ENE,67,4.6,4.6,77,0.00,CLR,,0.00,WeatherDisplay:10.37,2013-11-04 17:02:00,
2013-11-04 11:07:00,75.7,68.0,30.01,East,79,4.6,4.6,77,0.00,CLR,,0.00,WeatherDisplay:10.37,2013-11-04 17:07:00,
2013-11-04 11:12:00,75.5,67.8,30.00,ESE,115,5.8,5.8,77,0.00,CLR,,0.00,WeatherDisplay:10.37,2013-11-04 17:12:00,
2013-11-04 11:17:00,75.1,67.8,30.00,ENE,70,5.8,5.8,78,0.00,CLR,,0.00,WeatherDisplay:10.37,2013-11-04 17:17:00,
2013-11-04 11:22:00,74.9,67.6,30.00,East,98,4.6,4.6,78,0.00,CLR,,0.00,WeatherDisplay:10.37,2013-11-04 17:22:00,
2013-11-04 11:27:00,74.7,67.8,30.00,East,82,2.3,2.3,79,0.00,CLR,,0.00,WeatherDisplay:10.37,2013-11-04 17:27:00,
2013-11-04 11:32:00,74.5,67.6,30.00,East,91,4.6,4.6,79,0.00,CLR,,0.00,WeatherDisplay:10.37,2013-11-04 17:32:00,
2013-11-04 11:37:00,74.4,67.8,30.00,East,89,4.6,4.6,80,0.00,CLR,,0.00,WeatherDisplay:10.37,2013-11-04 17:37:00,
2013-11-04 11:42:00,74.2,67.6,29.99,ENE,74,5.8,5.8,80,0.00,CLR,,0.00,WeatherDisplay:10.37,2013-11-04 17:42:00,
2013-11-04 11:47:00,74.1,67.9,29.99,ESE,106,5.8,5.8,81,0.00,CLR,,0.00,WeatherDisplay:10.37,2013-11-04 17:47:00,
2013-11-04 11:52:00,73.9,67.7,29.99,ENE,76,9.2,9.2,81,0.00,CLR,,0.00,WeatherDisplay:10.37,2013-11-04 17:52:00,
2013-11-04 11:57:00,73.7,67.5,29.98,ENE,76,5.8,5.8,81,0.00,CLR,,0.00,WeatherDisplay:10.37,2013-11-04 17:57:00,
2013-11-04 12:02:00,73.7,67.9,29.97,East,84,5.3,5.3,82,0.00,CLR,,0.00,WeatherDisplay:10.37,2013-11-04 18:02:00,
2013-11-04 12:07:00,73.7,67.9,29.97,East,86,3.5,3.5,82,0.00,CLR,,0.00,WeatherDisplay:10.37,2013-11-04 18:07:00,
2013-11-04 12:12:00,73.8,67.6,29.97,East,92,5.8,5.8,81,0.00,CLR,,0.00,WeatherDisplay:10.37,2013-11-04 18:12:00,
2013-11-04 12:17:00,73.9,67.7,29.97,East,89,4.6,4.6,81,0.00,CLR,,0.00,WeatherDisplay:10.37,2013-11-04 18:17:00,
2013-11-04 12:22:00,74.1,67.9,29.96,ENE,72,4.6,4.6,81,0.00,CLR,,0.00,WeatherDisplay:10.37,2013-11-04 18:22:00,
2013-11-04 12:27:00,74.2,68.3,29.96,ENE,60,5.8,5.8,82,0.00,CLR,,0.00,WeatherDisplay:10.37,2013-11-04 18:27:00,
2013-11-04 12:32:00,74.5,68.6,29.96,ENE,59,6.9,6.9,82,0.00,CLR,,0.00,WeatherDisplay:10.37,2013-11-04 18:32:00,
2013-11-04 12:37:00,74.6,68.7,29.96,ENE,68,5.8,5.8,82,0.00,CLR,,0.00,WeatherDisplay:10.37,2013-11-04 18:37:00,
2013-11-04 12:42:00,74.9,68.7,29.96,NE,39,4.6,4.6,81,0.00,CLR,,0.00,WeatherDisplay:10.37,2013-11-04 18:42:00,
2013-11-04 12:47:00,75.2,69.3,29.96,East,88,5.8,5.8,82,0.00,CLR,,0.00,WeatherDisplay:10.37,2013-11-04 18:47:00,
2013-11-04 12:52:00,75.2,69.0,29.95,ENE,76,4.6,4.6,81,0.00,CLR,,0.00,WeatherDisplay:10.37,2013-11-04 18:52:00,
2013-11-04 12:57:00,75.3,69.1,29.95,ENE,75,3.5,3.5,81,0.00,CLR,,0.00,WeatherDisplay:10.37,2013-11-04 18:57:00,
2013-11-04 13:02:00,75.2,69.0,29.95,ENE,67,5.8,5.8,81,0.00,CLR,,0.00,WeatherDisplay:10.37,2013-11-04 19:02:00,
2013-11-04 13:07:00,74.9,69.0,29.95,East,88,5.8,5.8,82,0.00,CLR,,0.00,WeatherDisplay:10.37,2013-11-04 19:07:00,
2013-11-04 13:12:00,74.6,69.1,29.95,ENE,66,5.8,5.8,83,0.00,CLR,,0.00,WeatherDisplay:10.37,2013-11-04 19:12:00,
2013-11-04 13:17:00,74.2,68.7,29.94,East,101,6.9,6.9,83,0.00,CLR,,0.00,WeatherDisplay:10.37,2013-11-04 19:17:00,
2013-11-04 13:22:00,73.9,68.4,29.94,East,98,5.8,5.8,83,0.00,CLR,,0.00,WeatherDisplay:10.37,2013-11-04 19:22:00,
2013-11-04 13:27:00,73.9,68.4,29.94,East,81,4.6,4.6,83,0.00,CLR,,0.00,WeatherDisplay:10.37,2013-11-04 19:27:00,
2013-11-04 13:32:00,74.3,68.8,29.94,ENE,71,5.8,5.8,83,0.00,CLR,,0.00,WeatherDisplay:10.37,2013-11-04 19:32:00,
2013-11-04 13:37:00,74.4,68.5,29.94,ESE,106,5.8,5.8,82,0.00,CLR,,0.00,WeatherDisplay:10.37,2013-11-04 19:37:00,
2013-11-04 13:42:00,74.6,69.1,29.93,ENE,70,4.6,4.6,83,0.00,CLR,,0.00,WeatherDisplay:10.37,2013-11-04 19:42:00,
2013-11-04 13:47:00,74.8,68.9,29.93,ENE,77,5.8,5.8,82,0.00,CLR,,0.00,WeatherDisplay:10.37,2013-11-04 19:47:00,
2013-11-04 13:52:00,74.7,68.8,29.93,ENE,73,5.8,5.8,82,0.00,CLR,,0.00,WeatherDisplay:10.37,2013-11-04 19:52:00,
2013-11-04 13:57:00,74.6,68.7,29.93,East,89,4.6,4.6,82,0.00,CLR,,0.00,WeatherDisplay:10.37,2013-11-04 19:57:00,
2013-11-04 14:02:00,74.5,68.6,29.92,ENE,65,5.8,5.8,82,0.00,CLR,,0.00,WeatherDisplay:10.37,2013-11-04 20:02:00,
2013-11-04 14:07:00,74.2,68.7,29.92,ENE,66,9.2,9.2,83,0.00,CLR,,0.00,WeatherDisplay:10.37,2013-11-04 20:07:00,
2013-11-04 14:12:00,74.2,68.7,29.92,ESE,108,4.6,4.6,83,0.00,CLR,,0.00,WeatherDisplay:10.37,2013-11-04 20:12:00,
2013-11-04 14:17:00,74.2,68.7,29.92,East,81,4.6,4.6,83,0.00,CLR,,0.00,WeatherDisplay:10.37,2013-11-04 20:17:00,
2013-11-04 14:22:00,74.3,69.1,29.92,ENE,65,5.8,5.8,84,0.00,CLR,,0.00,WeatherDisplay:10.37,2013-11-04 20:22:00,
2013-11-04 14:27:00,74.3,69.1,29.92,ESE,121,5.8,5.8,84,0.00,CLR,,0.00,WeatherDisplay:10.37,2013-11-04 20:27:00,
2013-11-04 14:32:00,74.3,69.1,29.92,ENE,73,5.8,5.8,84,0.00,CLR,,0.00,WeatherDisplay:10.37,2013-11-04 20:32:00,
2013-11-04 14:37:00,74.3,68.8,29.91,ESE,110,5.8,5.8,83,0.00,CLR,,0.00,WeatherDisplay:10.37,2013-11-04 20:37:00,
2013-11-04 14:42:00,74.4,68.9,29.91,East,83,6.9,6.9,83,0.00,CLR,,0.00,WeatherDisplay:10.37,2013-11-04 20:42:00,
2013-11-04 14:47:00,74.3,68.8,29.91,East,89,6.9,6.9,83,0.00,CLR,,0.00,WeatherDisplay:10.37,2013-11-04 20:47:00,
2013-11-04 14:52:00,74.6,69.4,29.91,East,98,3.5,3.5,84,0.00,CLR,,0.00,WeatherDisplay:10.37,2013-11-04 20:52:00,
2013-11-04 14:57:00,74.9,69.4,29.91,East,88,5.8,5.8,83,0.00,CLR,,0.00,WeatherDisplay:10.37,2013-11-04 20:57:00,
2013-11-04 15:02:00,74.8,69.3,29.91,ENE,73,4.6,4.6,83,0.00,CLR,,0.00,WeatherDisplay:10.37,2013-11-04 21:02:00,
2013-11-04 15:07:00,74.7,69.5,29.91,ENE,65,10.4,10.4,84,0.00,CLR,,0.00,WeatherDisplay:10.37,2013-11-04 21:07:00,
2013-11-04 15:12:00,74.4,69.6,29.91,East,88,5.8,5.8,85,0.00,CLR,,0.00,WeatherDisplay:10.37,2013-11-04 21:12:00,
2013-11-04 15:17:00,74.2,69.4,29.91,ENE,59,6.9,6.9,85,0.00,CLR,,0.00,WeatherDisplay:10.37,2013-11-04 21:17:00,
2013-11-04 15:22:00,74.0,69.2,29.91,East,94,11.5,11.5,85,0.00,CLR,,0.00,WeatherDisplay:10.37,2013-11-04 21:22:00,
2013-11-04 15:27:00,73.8,69.0,29.91,East,98,5.8,5.8,85,0.00,CLR,,0.00,WeatherDisplay:10.37,2013-11-04 21:27:00,
2013-11-04 15:32:00,73.9,69.1,29.90,East,93,5.8,5.8,85,0.00,CLR,,0.00,WeatherDisplay:10.37,2013-11-04 21:32:00,
2013-11-04 15:37:00,73.8,68.7,29.90,East,96,5.8,5.8,84,0.00,CLR,,0.00,WeatherDisplay:10.37,2013-11-04 21:37:00,
2013-11-04 15:42:00,73.9,69.4,29.90,NE,49,9.2,9.2,86,0.00,CLR,,0.00,WeatherDisplay:10.37,2013-11-04 21:42:00,
2013-11-04 15:47:00,73.9,69.4,29.90,ENE,63,5.8,5.8,86,0.00,CLR,,0.00,WeatherDisplay:10.37,2013-11-04 21:47:00,
2013-11-04 15:52:00,73.7,69.6,29.90,ENE,63,5.8,5.8,87,0.00,CLR,,0.00,WeatherDisplay:10.37,2013-11-04 21:52:00,
2013-11-04 15:57:00,73.6,69.5,29.90,East,97,6.9,6.9,87,0.00,CLR,,0.00,WeatherDisplay:10.37,2013-11-04 21:57:00,
2013-11-04 16:02:00,73.4,69.3,29.91,NE,49,9.2,9.2,87,0.00,CLR,,0.00,WeatherDisplay:10.37,2013-11-04 22:02:00,
2013-11-04 16:07:00,73.2,69.1,29.90,ENE,78,11.5,11.5,87,0.00,CLR,,0.00,WeatherDisplay:10.37,2013-11-04 22:07:00,
2013-11-04 16:12:00,73.0,69.2,29.90,ENE,72,5.8,5.8,88,0.00,CLR,,0.00,WeatherDisplay:10.37,2013-11-04 22:12:00,
2013-11-04 16:17:00,72.9,69.1,29.91,East,82,5.8,5.8,88,0.00,CLR,,0.00,WeatherDisplay:10.37,2013-11-04 22:17:00,
2013-11-04 16:22:00,73.0,69.2,29.91,ENE,63,9.2,9.2,88,0.00,CLR,,0.00,WeatherDisplay:10.37,2013-11-04 22:22:00,
2013-11-04 16:27:00,73.0,68.9,29.91,East,86,5.8,5.8,87,0.00,CLR,,0.00,WeatherDisplay:10.37,2013-11-04 22:27:00,
2013-11-04 16:32:00,73.0,68.9,29.91,East,90,5.8,5.8,87,0.00,CLR,,0.00,WeatherDisplay:10.37,2013-11-04 22:32:00,
2013-11-04 16:37:00,72.9,69.1,29.91,ENE,72,6.9,6.9,88,0.00,CLR,,0.00,WeatherDisplay:10.37,2013-11-04 22:37:00,
2013-11-04 16:42:00,72.9,69.1,29.91,ENE,74,5.8,5.8,88,0.00,CLR,,0.00,WeatherDisplay:10.37,2013-11-04 22:42:00,
2013-11-04 16:47:00,72.9,69.1,29.91,East,86,6.9,6.9,88,0.00,CLR,,0.00,WeatherDisplay:10.37,2013-11-04 22:47:00,
2013-11-04 16:52:00,72.7,68.9,29.91,ENE,70,6.9,6.9,88,0.00,CLR,,0.00,WeatherDisplay:10.37,2013-11-04 22:52:00,
2013-11-04 16:57:00,72.5,68.7,29.91,NE,53,6.9,6.9,88,0.00,CLR,,0.00,WeatherDisplay:10.37,2013-11-04 22:57:00,
2013-11-04 17:02:00,72.4,69.0,29.91,East,86,5.8,5.8,89,0.00,CLR,,0.00,WeatherDisplay:10.37,2013-11-04 23:02:00,
2013-11-04 17:07:00,72.4,69.0,29.91,ESE,109,5.8,5.8,89,0.00,CLR,,0.00,WeatherDisplay:10.37,2013-11-04 23:07:00,
2013-11-04 17:12:00,72.3,68.9,29.91,ENE,72,5.8,5.8,89,0.00,CLR,,0.00,WeatherDisplay:10.37,2013-11-04 23:12:00,
2013-11-04 17:17:00,72.3,69.2,29.91,ESE,116,5.8,5.8,90,0.00,CLR,,0.00,WeatherDisplay:10.37,2013-11-04 23:17:00,
2013-11-04 17:22:00,72.3,69.2,29.92,ESE,103,5.8,5.8,90,0.00,CLR,,0.00,WeatherDisplay:10.37,2013-11-04 23:22:00,
2013-11-04 17:27:00,72.3,69.2,29.92,East,84,4.6,4.6,90,0.00,CLR,,0.00,WeatherDisplay:10.37,2013-11-04 23:27:00,
2013-11-04 17:32:00,72.3,69.2,29.92,ENE,76,5.8,5.8,90,0.00,CLR,,0.00,WeatherDisplay:10.37,2013-11-04 23:32:00,
2013-11-04 17:37:00,72.3,69.2,29.92,East,98,4.6,4.6,90,0.00,CLR,,0.00,WeatherDisplay:10.37,2013-11-04 23:37:00,
2013-11-04 17:42:00,72.3,69.2,29.92,ESE,108,2.3,2.3,90,0.00,CLR,,0.00,WeatherDisplay:10.37,2013-11-04 23:42:00,
2013-11-04 17:47:00,72.3,69.2,29.92,ENE,73,4.6,4.6,90,0.00,CLR,,0.00,WeatherDisplay:10.37,2013-11-04 23:47:00,
2013-11-04 17:52:00,72.3,69.2,29.92,ESE,104,5.8,5.8,90,0.00,CLR,,0.00,WeatherDisplay:10.37,2013-11-04 23:52:00,
2013-11-04 17:57:00,72.4,69.3,29.92,East,101,3.5,3.5,90,0.00,CLR,,0.00,WeatherDisplay:10.37,2013-11-04 23:57:00,
2013-11-04 18:02:00,72.3,69.5,29.93,East,82,5.8,5.8,91,0.00,CLR,,0.00,WeatherDisplay:10.37,2013-11-05 00:02:00,
2013-11-04 18:07:00,72.3,69.5,29.93,East,83,5.8,5.8,91,0.00,CLR,,0.00,WeatherDisplay:10.37,2013-11-05 00:07:00,
2013-11-04 18:12:00,72.4,69.6,29.93,East,79,5.8,5.8,91,0.00,CLR,,0.00,WeatherDisplay:10.37,2013-11-05 00:12:00,
2013-11-04 18:17:00,72.4,69.6,29.93,ENE,77,4.6,4.6,91,0.00,CLR,,0.00,WeatherDisplay:10.37,2013-11-05 00:17:00,
2013-11-04 18:22:00,72.3,69.5,29.93,East,92,3.5,3.5,91,0.00,CLR,,0.00,WeatherDisplay:10.37,2013-11-05 00:22:00,
2013-11-04 18:27:00,72.3,69.5,29.93,East,86,5.8,5.8,91,0.00,CLR,,0.00,WeatherDisplay:10.37,2013-11-05 00:27:00,
2013-11-04 18:32:00,72.4,69.6,29.94,ENE,77,5.8,5.8,91,0.00,CLR,,0.00,WeatherDisplay:10.37,2013-11-05 00:32:00,
2013-11-04 18:37:00,72.4,69.6,29.94,ENE,77,5.8,5.8,91,0.00,CLR,,0.00,WeatherDisplay:10.37,2013-11-05 00:37:00,
2013-11-04 18:42:00,72.5,69.7,29.94,ESE,114,4.6,4.6,91,0.00,CLR,,0.00,WeatherDisplay:10.37,2013-11-05 00:42:00,
2013-11-04 18:47:00,72.5,69.7,29.94,ESE,109,4.6,4.6,91,0.00,CLR,,0.00,WeatherDisplay:10.37,2013-11-05 00:47:00,
2013-11-04 18:52:00,72.4,69.6,29.94,East,98,3.5,3.5,91,0.00,CLR,,0.00,WeatherDisplay:10.37,2013-11-05 00:52:00,
2013-11-04 18:57:00,72.4,69.6,29.94,East,89,3.5,3.5,91,0.00,CLR,,0.00,WeatherDisplay:10.37,2013-11-05 00:57:00,
2013-11-04 19:02:00,72.4,69.6,29.94,East,98,3.5,3.5,91,0.00,CLR,,0.00,WeatherDisplay:10.37,2013-11-05 01:02:00,
2013-11-04 19:07:00,72.4,69.6,29.94,East,90,3.5,3.5,91,0.00,CLR,,0.00,WeatherDisplay:10.37,2013-11-05 01:07:00,
2013-11-04 19:12:00,72.4,69.6,29.94,ESE,108,4.6,4.6,91,0.00,CLR,,0.00,WeatherDisplay:10.37,2013-11-05 01:12:00,
2013-11-04 19:17:00,72.4,69.6,29.94,ESE,108,5.8,5.8,91,0.00,CLR,,0.00,WeatherDisplay:10.37,2013-11-05 01:17:00,
2013-11-04 19:22:00,72.4,69.6,29.94,East,82,4.6,4.6,91,0.00,CLR,,0.00,WeatherDisplay:10.37,2013-11-05 01:22:00,
2013-11-04 19:27:00,72.3,69.5,29.94,East,84,3.5,3.5,91,0.00,CLR,,0.00,WeatherDisplay:10.37,2013-11-05 01:27:00,
2013-11-04 19:32:00,72.3,69.5,29.94,ENE,69,2.3,2.3,91,0.00,CLR,,0.00,WeatherDisplay:10.37,2013-11-05 01:32:00,
2013-11-04 19:37:00,72.2,69.4,29.94,ENE,70,2.3,2.3,91,0.00,CLR,,0.00,WeatherDisplay:10.37,2013-11-05 01:37:00,
2013-11-04 19:42:00,72.1,69.3,29.94,East,100,2.3,2.3,91,0.00,CLR,,0.00,WeatherDisplay:10.37,2013-11-05 01:42:00,
2013-11-04 19:47:00,72.0,69.2,29.94,East,100,2.3,2.3,91,0.00,CLR,,0.00,WeatherDisplay:10.37,2013-11-05 01:47:00,
2013-11-04 19:52:00,71.9,69.1,29.95,East,101,2.3,2.3,91,0.00,CLR,,0.00,WeatherDisplay:10.37,2013-11-05 01:52:00,
2013-11-04 19:57:00,71.8,69.0,29.95,East,101,1.1,1.1,91,0.00,CLR,,0.00,WeatherDisplay:10.37,2013-11-05 01:57:00,
2013-11-04 20:02:00,71.6,68.8,29.95,East,101,1.1,1.1,91,0.00,CLR,,0.00,WeatherDisplay:10.37,2013-11-05 02:02:00,
2013-11-04 20:07:00,71.4,68.3,29.94,East,101,2.3,2.3,90,0.00,CLR,,0.00,WeatherDisplay:10.37,2013-11-05 02:07:00,
2013-11-04 20:12:00,71.3,68.2,29.94,ESE,103,3.5,3.5,90,0.00,CLR,,0.00,WeatherDisplay:10.37,2013-11-05 02:12:00,
2013-11-04 20:17:00,71.3,67.9,29.94,ESE,105,3.5,3.5,89,0.00,CLR,,0.00,WeatherDisplay:10.37,2013-11-05 02:17:00,
2013-11-04 20:22:00,71.4,68.0,29.94,ESE,105,2.3,2.3,89,0.00,CLR,,0.00,WeatherDisplay:10.37,2013-11-05 02:22:00,
2013-11-04 20:27:00,71.5,68.1,29.95,SE,131,5.8,5.8,89,0.00,CLR,,0.00,WeatherDisplay:10.37,2013-11-05 02:27:00,
2013-11-04 20:32:00,71.7,68.3,29.94,SE,130,4.6,4.6,89,0.00,CLR,,0.00,WeatherDisplay:10.37,2013-11-05 02:32:00,
2013-11-04 20:37:00,71.9,68.5,29.94,East,97,3.5,3.5,89,0.00,CLR,,0.00,WeatherDisplay:10.37,2013-11-05 02:37:00,
2013-11-04 20:42:00,72.1,68.7,29.95,ESE,105,3.5,3.5,89,0.00,CLR,,0.00,WeatherDisplay:10.37,2013-11-05 02:42:00,
2013-11-04 20:47:00,72.1,68.7,29.95,SE,135,4.6,4.6,89,0.00,CLR,,0.00,WeatherDisplay:10.37,2013-11-05 02:47:00,
2013-11-04 20:52:00,72.2,68.8,29.95,SE,124,4.6,4.6,89,0.00,CLR,,0.00,WeatherDisplay:10.37,2013-11-05 02:52:00,
2013-11-04 20:57:00,72.2,68.8,29.95,SE,124,3.5,3.5,89,0.00,CLR,,0.00,WeatherDisplay:10.37,2013-11-05 02:57:00,
2013-11-04 21:02:00,72.2,68.8,29.95,SE,127,4.6,4.6,89,0.00,CLR,,0.00,WeatherDisplay:10.37,2013-11-05 03:02:00,
2013-11-04 21:07:00,72.2,68.8,29.95,SE,127,1.1,1.1,89,0.00,CLR,,0.00,WeatherDisplay:10.37,2013-11-05 03:07:00,
2013-11-04 21:12:00,72.2,68.8,29.95,SE,133,1.1,1.1,89,0.00,CLR,,0.00,WeatherDisplay:10.37,2013-11-05 03:12:00,
2013-11-04 21:17:00,72.1,68.7,29.95,ESE,113,4.6,4.6,89,0.00,CLR,,0.00,WeatherDisplay:10.37,2013-11-05 03:17:00,
2013-11-04 21:22:00,72.1,68.7,29.95,SE,130,1.1,1.1,89,0.00,CLR,,0.00,WeatherDisplay:10.37,2013-11-05 03:22:00,
2013-11-04 21:27:00,72.0,68.6,29.95,SE,129,2.3,2.3,89,0.00,CLR,,0.00,WeatherDisplay:10.37,2013-11-05 03:27:00,
2013-11-04 21:32:00,71.9,68.5,29.95,SE,129,1.1,1.1,89,0.00,CLR,,0.00,WeatherDisplay:10.37,2013-11-05 03:32:00,
2013-11-04 21:37:00,71.8,68.7,29.95,SE,131,2.3,2.3,90,0.00,CLR,,0.00,WeatherDisplay:10.37,2013-11-05 03:37:00,
2013-11-04 21:42:00,71.7,68.6,29.95,SE,131,2.3,2.3,90,0.00,CLR,,0.00,WeatherDisplay:10.37,2013-11-05 03:42:00,
2013-11-04 21:47:00,71.6,68.5,29.95,SE,131,1.1,1.1,90,0.00,CLR,,0.00,WeatherDisplay:10.37,2013-11-05 03:47:00,
2013-11-04 21:52:00,71.6,68.5,29.95,SE,131,1.1,1.1,90,0.00,CLR,,0.00,WeatherDisplay:10.37,2013-11-05 03:52:00,
2013-11-04 21:57:00,71.6,68.5,29.95,SE,131,1.1,1.1,90,0.00,CLR,,0.00,WeatherDisplay:10.37,2013-11-05 03:57:00,
2013-11-04 22:02:00,71.5,68.7,29.95,SE,134,1.1,1.1,91,0.00,CLR,,0.00,WeatherDisplay:10.37,2013-11-05 04:02:00,
2013-11-04 22:07:00,71.5,68.7,29.95,East,94,1.1,1.1,91,0.00,CLR,,0.00,WeatherDisplay:10.37,2013-11-05 04:07:00,
2013-11-04 22:12:00,71.4,68.6,29.96,East,94,2.3,2.3,91,0.00,CLR,,0.00,WeatherDisplay:10.37,2013-11-05 04:12:00,
2013-11-04 22:17:00,71.3,68.2,29.96,East,94,1.1,0.0,90,0.00,CLR,,0.00,WeatherDisplay:10.37,2013-11-05 04:17:00,
2013-11-04 22:22:00,71.2,68.4,29.96,East,94,1.1,1.1,91,0.00,CLR,,0.00,WeatherDisplay:10.37,2013-11-05 04:22:00,
2013-11-04 22:27:00,71.1,68.3,29.95,East,94,1.1,1.1,91,0.00,CLR,,0.00,WeatherDisplay:10.37,2013-11-05 04:27:00,
2013-11-04 22:32:00,71.1,68.3,29.96,East,94,0.0,0.0,91,0.00,CLR,,0.00,WeatherDisplay:10.37,2013-11-05 04:32:00,
2013-11-04 22:37:00,71.0,68.2,29.96,East,94,0.0,0.0,91,0.00,CLR,,0.00,WeatherDisplay:10.37,2013-11-05 04:37:00,
2013-11-04 22:42:00,70.8,68.0,29.96,East,94,0.0,0.0,91,0.00,CLR,,0.00,WeatherDisplay:10.37,2013-11-05 04:42:00,
2013-11-04 22:47:00,70.7,67.9,29.96,East,94,0.0,0.0,91,0.00,CLR,,0.00,WeatherDisplay:10.37,2013-11-05 04:47:00,
2013-11-04 22:52:00,70.6,67.8,29.96,East,94,0.0,0.0,91,0.00,CLR,,0.00,WeatherDisplay:10.37,2013-11-05 04:52:00,
2013-11-04 22:57:00,70.5,67.7,29.96,East,94,0.0,0.0,91,0.00,CLR,,0.00,WeatherDisplay:10.37,2013-11-05 04:57:00,
2013-11-04 23:01:00,70.5,68.1,29.96,East,94,0.0,0.0,92,0.00,CLR,,0.00,WeatherDisplay:10.37,2013-11-05 05:01:00,
2013-11-04 23:02:00,70.4,67.6,29.96,East,94,0.0,0.0,91,0.00,CLR,,0.00,WeatherDisplay:10.37,2013-11-05 05:02:00,
2013-11-04 23:07:00,70.2,67.8,29.96,East,94,0.0,0.0,92,0.00,CLR,,0.00,WeatherDisplay:10.37,2013-11-05 05:07:00,
2013-11-04 23:12:00,69.9,67.5,29.96,East,94,0.0,0.0,92,0.00,CLR,,0.00,WeatherDisplay:10.37,2013-11-05 05:12:00,
2013-11-04 23:17:00,69.6,67.2,29.96,East,94,0.0,0.0,92,0.00,CLR,,0.00,WeatherDisplay:10.37,2013-11-05 05:17:00,
2013-11-04 23:22:00,69.5,67.1,29.96,East,94,0.0,0.0,92,0.00,CLR,,0.00,WeatherDisplay:10.37,2013-11-05 05:22:00,
2013-11-04 23:27:00,69.4,67.0,29.96,East,94,0.0,0.0,92,0.00,CLR,,0.00,WeatherDisplay:10.37,2013-11-05 05:27:00,
2013-11-04 23:32:00,69.3,67.2,29.96,East,94,0.0,0.0,93,0.00,CLR,,0.00,WeatherDisplay:10.37,2013-11-05 05:32:00,
2013-11-04 23:37:00,69.2,66.8,29.96,East,94,0.0,0.0,92,0.00,CLR,,0.00,WeatherDisplay:10.37,2013-11-05 05:37:00,
2013-11-04 23:42:00,69.1,67.0,29.96,East,94,0.0,0.0,93,0.00,CLR,,0.00,WeatherDisplay:10.37,2013-11-05 05:42:00,
2013-11-04 23:47:00,69.1,67.0,29.95,East,94,0.0,0.0,93,0.00,CLR,,0.00,WeatherDisplay:10.37,2013-11-05 05:47:00,
2013-11-04 23:52:00,69.1,67.0,29.96,East,94,0.0,0.0,93,0.00,CLR,,0.00,WeatherDisplay:10.37,2013-11-05 05:52:00,
2013-11-04 23:57:00,69.2,67.1,29.96,East,94,0.0,0.0,93,0.00,CLR,,0.00,WeatherDisplay:10.37,2013-11-05 05:57:00,